Applegate, Michigan
Current Conditions -  °F | °C
As of 7:47 AM on Saturday 25 Oct 2014 (Local Time) from CYZR Reporting Station
Broken Clouds Broken Clouds  
Wind Chill: 50°   Ceiling: 6500
Heat Index: 50°   Visibility: 3mi
Dew Point: 46°   Wind: 9mph
Humidity: 87%   Direction: 200°SSW
Pressure: 29.8"   Gusts: NA
Location:  43.36°N, 82.64°W
Report Text: CYZR 251147Z AUTO 20008KT 3SM BKN065 BKN100 10/08 A2980 RMK PRESFR SLP093
Loading
Personal Weather Stations






























Interactive Weather Map
Tropical Storm Tracking
New forecast layout! Learn more

10-Day Weather Forecast

Advertisements
Track Severe Weather on mobile